Relevés horaires Charleroi (Belgique)


Relevés horaires à Charleroi - Mardi 16 Avr. 2019
Heure UTC1 Température [°C] Vent [km/h] Hum. [%] Pres.4 [hPa] Visi. [Km] Nébu. [octa] Préc.5 [mm] Cond.
2m. Res. Ros. Dir.2 Vit. Moy. Raf.3
23:00 9.9 9.9 8.2 S 3.7 3.7 7.4 89 1018.8(0.5/3h) 30 7/8 -- --
22:00 10.2 10.2 8.1 S 3.7 5.6 7.4 87 1018.7(1.0/3h) 30 6/8 -- --
21:00 10.5 10.2 8.0 S 5.6 7.4 9.3 84 1018.5(1.4/3h) 30 5/8 -- --
20:00 11.0 11.0 7.6 S 3.7 5.6 9.3 80 1018.2(1.6/3h) 30 7/8 -- --
19:00 11.5 11.3 7.5 SSE 5.6 7.4 9.3 76 1017.6(1.3/3h) 30 7/8 -- --
18:00 12.1 12 7.0 S 5.6 11.1 16.7 71 1017(1.1/3h) 30 6/8 0/12h
--
17:00 12.5 12.1 7.0 S 7.4 11.1 14.8 69 1016.5(1.0/3h) 30 6/8 -- --
16:00 12.9 11.9 7.1 SSE 11.1 11.1 14.8 68 1016.2(1.0/3h) 30 7/8 -- --
15:00 13.4 12.5 6.8 SSE 11.1 11.1 16.7 64 1015.7(1.0/3h) 15 6/8 -- --
14:00 14.3 13.6 5.5 S 11.1 11.1 16.7 55 1015.4(0.9/3h) 15 6/8 -- --
13:00 15.1 14.8 4.3 S 9.3 9.3 14.8 48 1015(0.6/3h) 15 6/8 -- --
12:00 15.3 15.3 3.6 SSE 7.4 9.3 16.7 45 1014.6(0.3/3h) 15 5/8 0/6h
--
11:00 15.6 15.6 3.9 SSE 5.6 7.4 16.7 46 1014.4(0.2/3h) 15 5/8 -- --
10:00 14.9 14.9 4.6 SE 5.6 9.3 14.8 50 1014.4(0.0/3h) 15 4/8 -- --
09:00 13.6 13 4.0 SSE 9.3 9.3 16.7 52 1014.5(0.0/3h) 15 4/8 -- --
08:00 11.9 11.4 2.6 SE 7.4 9.3 13.0 53 1014.5(-0.1/3h) 15 3/8 -- --
07:00 10.4 10 2.1 ENE 5.6 5.6 7.4 56 1014.6(0.0/3h) 15 3/8 -- --
06:00 8.1 7.4 2.2 ENE 5.6 7.4 9.3 66 1014.8(-0.3/3h) 15 3/8 0/12h
--
05:00 5.1 5.1 2.0 E 3.7 5.6 7.4 80 1014.9(-0.6/3h) 16 1/8 -- --
04:00 4.8 3.6 2.0 NE 5.6 5.6 7.4 82 1015(-0.8/3h) 16 1/8 -- --
03:00 5.5 4.4 2.1 E 5.6 7.4 9.3 79 1015.4(-0.9/3h) 20 1/8 -- --
02:00 9.2 9.2 2.2 ESE 3.7 7.4 7.4 62 1015.2(-1.2/3h) 20 1/8 -- --
01:00 9.4 8.9 2.6 E 5.6 5.6 9.3 62 1015.5(-1.1/3h) 20 1/8 -- --
00:00 10.2 9.8 3.1 E 5.6 9.3 16.7 61 1015.9(-0.9/3h) 20 1/8 0/6h
0/24h
--

1 Coordinated Universal Time. Actuellement il est 23:00 locale et 21:00 UTC.

2 Le vent souffle depuis la direction indiquée vers la direction oposée.

3 Les rafales max. sont disponible 40 min après l'heure du relevé.

4 Pour les stations d'altitude (plus de 600m) le géopotentiel du niveau le plus proche de la pression obligatoire est indiqué.

5 Les stations disposant d'un diffuseur peuvent indiquer "trace". Cela signifie que des précipitations ont touchés le sol mais que la quantité est inférieure à 0.1 mm.

Récapitulatif de la journée
Température [°C] Vent [km/h] Ensoleillement4 [h] Precipitations totale5 [mm] Pression [Hpa]
Min1 Max.2 Moy.3 Max. Min Max.
4.6 16.6 8 16.7 0 h 0 min 0 1014.4 1018.8

1 Température minimale relevée entre 18:00 UTC la veille et 18:00 UTC le jour donné.

2 Température maximale relevée entre 06:00 UTC le jour donné et 06:00 UTC le lendemain.

3 Vent moyen de la journée basé sur les relevés horaires.

4 Ensoleillement en heures relevé entre 06:00 UTC la veille et 06:00 UTC le jour donné.

5 Précipitations totales tombées entre 06:00 UTC la jour donné et 06:00 UTC le lendemain.

Graphiques horaires